Time;durP1;ratioP1;P1;durP2;ratioP2;P2;SDS_P1;SDS_P2;PMS_P1;PMS_P2;Temp;Humidity;BMP_temperature;BMP_pressure;BME280_temperature;BME280_humidity;BME280_pressure;Samples;Min_cycle;Max_cycle;Signal;HPM_P1;HPM_P2
2022/01/24 00:00:28;;;;;;;6.97;5.53;;;;;;;1.71;90.33;99733.06;5058007;28;20224;-69
2022/01/24 00:02:55;;;;;;;9.17;6.80;;;;;;;1.62;90.66;99722.50;5058024;28;20236;-69
2022/01/24 00:05:21;;;;;;;8.00;6.60;;;;;;;1.57;91.19;99719.41;5057993;28;20200;-69
2022/01/24 00:07:48;;;;;;;8.50;6.43;;;;;;;1.49;91.17;99713.94;5057878;28;20186;-69
2022/01/24 00:10:18;;;;;;;7.57;6.43;;;;;;;1.43;91.08;99711.78;5057533;28;20244;-69
2022/01/24 00:12:54;;;;;;;8.70;6.63;;;;;;;1.40;91.17;99706.81;5058087;28;20473;-69
2022/01/24 00:15:35;;;;;;;7.77;5.77;;;;;;;1.41;91.51;99705.84;5057736;28;20189;-69
2022/01/24 00:18:08;;;;;;;8.43;6.77;;;;;;;1.46;92.04;99698.44;5057641;28;20221;-69
2022/01/24 00:28:45;;;;;;;7.80;6.23;;;;;;;1.22;92.65;99695.16;5057330;28;20287;-69
2022/01/24 00:31:12;;;;;;;7.87;6.70;;;;;;;1.24;93.22;99694.06;5057436;28;20221;-69
2022/01/24 00:33:38;;;;;;;8.40;6.83;;;;;;;1.25;92.90;99698.34;5057003;28;20193;-69
2022/01/24 00:36:05;;;;;;;8.60;6.60;;;;;;;1.26;93.55;99696.59;5057400;28;20205;-69
2022/01/24 00:38:32;;;;;;;7.90;6.07;;;;;;;1.20;93.35;99691.81;5056971;28;20217;-69
2022/01/24 00:40:58;;;;;;;8.33;6.83;;;;;;;1.25;93.50;99684.41;5056948;28;20658;-69
2022/01/24 00:43:30;;;;;;;7.23;6.20;;;;;;;1.21;93.51;99685.63;5057242;28;20208;-69
2022/01/24 00:46:02;;;;;;;9.57;7.00;;;;;;;1.11;93.01;99689.91;5056911;28;20667;-69
2022/01/24 00:48:51;;;;;;;8.67;7.17;;;;;;;1.13;93.94;99683.59;5057630;28;20201;-69
2022/01/24 00:54:42;;;;;;;9.33;7.17;;;;;;;1.09;93.64;99681.34;5056883;28;20169;-69
2022/01/24 00:56:50;;;;;;;9.07;6.97;;;;;;;1.10;93.68;99675.16;5056533;28;20291;-69
2022/01/24 00:59:16;;;;;;;8.77;7.70;;;;;;;1.12;94.04;99678.50;5056985;28;20196;-69
2022/01/24 01:01:42;;;;;;;8.33;7.40;;;;;;;1.08;93.81;99674.44;5056906;28;20221;-69
2022/01/24 01:04:09;;;;;;;9.10;7.20;;;;;;;1.18;94.10;99680.63;5056887;28;20295;-69
2022/01/24 01:06:38;;;;;;;9.13;7.37;;;;;;;1.13;94.08;99678.34;5056530;28;20552;-69
2022/01/24 01:20:00;;;;;;;9.20;7.30;;;;;;;1.10;94.55;99701.34;5056445;28;20557;-69
2022/01/24 01:22:26;;;;;;;9.67;6.87;;;;;;;1.10;94.10;99704.81;5056403;28;20493;-69
2022/01/24 01:24:55;;;;;;;9.80;7.03;;;;;;;1.00;94.63;99709.09;5056305;28;20630;-69
2022/01/24 01:27:25;;;;;;;10.33;7.73;;;;;;;0.99;94.40;99701.34;5056251;28;20680;-69
2022/01/24 01:29:58;;;;;;;8.07;7.23;;;;;;;0.95;94.85;99707.78;5056222;28;20194;-69
2022/01/24 01:32:42;;;;;;;10.60;7.80;;;;;;;0.97;94.61;99706.72;5056523;28;20196;-69
2022/01/24 01:35:24;;;;;;;9.33;7.27;;;;;;;0.82;94.63;99701.81;5056953;28;20486;-69
2022/01/24 01:38:14;;;;;;;9.13;7.23;;;;;;;0.79;95.42;99704.66;5056164;28;20215;-69
2022/01/24 01:57:00;;;;;;;9.77;7.43;;;;;;;0.63;96.21;99701.56;5057301;28;20319;-69
2022/01/24 01:59:27;;;;;;;9.57;7.67;;;;;;;0.63;96.08;99701.56;5060368;28;20204;-69
2022/01/24 02:01:53;;;;;;;8.93;7.20;;;;;;;0.59;96.36;99707.97;5059973;28;20680;-69
2022/01/24 02:04:20;;;;;;;10.30;6.70;;;;;;;0.56;96.71;99702.97;5059968;28;20580;-69
2022/01/24 02:06:46;;;;;;;8.57;7.33;;;;;;;0.50;96.18;99703.44;5060183;28;20205;-69
2022/01/24 02:09:14;;;;;;;9.00;7.63;;;;;;;0.47;96.31;99707.13;5060230;28;20201;-69
2022/01/24 02:11:40;;;;;;;9.93;8.13;;;;;;;0.43;96.89;99699.59;5059749;28;20229;-69
2022/01/24 02:14:10;;;;;;;12.37;8.50;;;;;;;0.40;96.86;99698.06;5060093;28;20201;-69
2022/01/24 02:16:45;;;;;;;8.73;7.50;;;;;;;0.38;97.09;99700.78;5060104;28;20196;-69
2022/01/24 02:19:21;;;;;;;9.20;7.20;;;;;;;0.45;97.15;99708.19;5060022;28;20230;-69
2022/01/24 02:22:05;;;;;;;9.27;7.33;;;;;;;0.47;97.24;99694.03;5059943;28;20232;-69
2022/01/24 02:24:40;;;;;;;10.77;7.77;;;;;;;0.50;97.01;99693.81;5059945;28;20193;-69
2022/01/24 02:27:08;;;;;;;10.20;7.57;;;;;;;0.47;97.26;99688.81;5059875;28;20207;-69
2022/01/24 02:29:48;;;;;;;10.53;7.90;;;;;;;0.44;97.00;99685.59;5060057;28;20206;-69
2022/01/24 02:32:15;;;;;;;10.23;8.07;;;;;;;0.44;97.32;99685.59;5059513;28;20603;-70
2022/01/24 02:34:44;;;;;;;10.37;8.13;;;;;;;0.38;97.19;99679.84;5059717;28;20202;-69
2022/01/24 02:37:13;;;;;;;10.13;7.57;;;;;;;0.32;97.45;99671.66;5059328;28;20255;-69
2022/01/24 02:39:51;;;;;;;11.73;8.10;;;;;;;0.31;97.59;99675.22;5059523;28;20203;-69
2022/01/24 02:53:50;;;;;;;10.13;7.60;;;;;;;0.18;97.64;99680.53;4983119;28;20286;-69
2022/01/24 02:56:17;;;;;;;9.97;8.17;;;;;;;0.17;97.86;99674.59;5036173;28;20201;-69
2022/01/24 02:58:43;;;;;;;9.70;8.10;;;;;;;0.13;98.28;99667.94;5059199;28;20218;-69
2022/01/24 03:01:10;;;;;;;8.90;7.33;;;;;;;0.17;97.84;99664.13;5059193;28;20524;-69
2022/01/24 03:03:38;;;;;;;11.33;8.73;;;;;;;0.13;97.54;99667.94;5059207;28;20204;-69
2022/01/24 03:06:05;;;;;;;9.07;7.27;;;;;;;0.06;98.32;99668.38;5059092;28;20208;-69
2022/01/24 03:08:32;;;;;;;9.77;7.47;;;;;;;0.11;97.15;99665.41;5059109;28;20433;-69
2022/01/24 03:10:59;;;;;;;10.23;6.83;;;;;;;0.08;97.02;99661.25;5058658;28;20243;-69
2022/01/24 03:13:32;;;;;;;9.93;6.97;;;;;;;0.00;96.30;99652.34;5058996;28;20259;-69
2022/01/24 03:16:01;;;;;;;8.87;7.03;;;;;;;0.00;96.89;99652.34;5058713;28;20659;-69
2022/01/24 03:18:28;;;;;;;9.10;7.43;;;;;;;0.15;96.09;99654.59;5058827;28;20217;-69
2022/01/24 03:20:55;;;;;;;8.70;7.20;;;;;;;0.11;95.40;99652.34;5058775;28;20454;-69
2022/01/24 03:23:24;;;;;;;9.83;7.60;;;;;;;0.08;96.22;99656.97;5058818;28;20430;-69
2022/01/24 03:25:51;;;;;;;10.30;7.17;;;;;;;0.09;95.97;99643.78;5058929;28;20426;-69
2022/01/24 03:28:17;;;;;;;9.77;7.20;;;;;;;0.10;96.34;99653.31;5058718;28;20434;-69
2022/01/24 03:30:45;;;;;;;9.27;7.43;;;;;;;0.14;96.14;99657.34;5058594;28;20233;-69
2022/01/24 03:33:12;;;;;;;9.47;7.10;;;;;;;0.05;96.45;99655.44;5059384;28;20445;-69
2022/01/24 03:35:40;;;;;;;11.30;7.47;;;;;;;0.19;96.58;99647.38;5058596;28;20441;-69
2022/01/24 03:38:07;;;;;;;10.33;7.93;;;;;;;0.25;96.26;99649.53;5058116;28;20982;-69
2022/01/24 03:40:33;;;;;;;9.07;7.33;;;;;;;0.23;95.64;99649.63;5058390;28;20221;-69
2022/01/24 03:42:59;;;;;;;9.53;7.97;;;;;;;0.08;95.88;99656.97;5058388;28;20446;-69
2022/01/24 03:45:38;;;;;;;9.40;7.50;;;;;;;0.12;96.27;99659.25;5058307;28;20441;-69
2022/01/24 03:48:09;;;;;;;11.50;7.63;;;;;;;0.06;95.96;99657.91;5058394;28;20438;-69
2022/01/24 03:50:35;;;;;;;11.10;7.77;;;;;;;0.15;95.75;99656.41;5058245;28;20784;-69
2022/01/24 03:53:02;;;;;;;9.27;7.37;;;;;;;0.05;95.80;99650.19;5058445;28;20438;-69
2022/01/24 03:55:28;;;;;;;8.60;6.93;;;;;;;-0.05;96.40;99649.19;5057861;28;20888;-69
2022/01/24 03:57:55;;;;;;;11.63;7.43;;;;;;;-0.07;96.71;99651.94;5058060;28;20240;-69
2022/01/24 04:00:21;;;;;;;8.80;7.90;;;;;;;0.05;96.49;99651.03;5058011;28;20466;-69
2022/01/24 04:02:48;;;;;;;11.30;7.27;;;;;;;-0.07;96.36;99649.34;5058001;28;20434;-69
2022/01/24 04:05:14;;;;;;;10.53;7.93;;;;;;;-0.06;96.24;99631.84;5057614;28;20505;-69
2022/01/24 04:07:41;;;;;;;9.50;7.00;;;;;;;-0.18;97.26;99636.22;5057312;28;20182;-69
2022/01/24 04:10:09;;;;;;;9.23;7.70;;;;;;;-0.23;97.26;99643.56;5057624;28;20501;-69
2022/01/24 04:12:37;;;;;;;10.73;8.07;;;;;;;-0.20;97.16;99643.34;5057814;28;20445;-69
2022/01/24 04:15:24;;;;;;;9.50;7.30;;;;;;;-0.23;97.50;99643.56;5057786;28;20441;-69
2022/01/24 04:18:08;;;;;;;10.00;7.60;;;;;;;-0.28;97.31;99650.91;5057338;28;20770;-69
2022/01/24 04:23:19;;;;;;;9.27;7.20;;;;;;;-0.37;98.17;99648.13;5057336;28;20450;-69
2022/01/24 04:25:46;;;;;;;10.20;7.77;;;;;;;-0.29;98.54;99651.03;5057277;28;20864;-69
2022/01/24 04:28:13;;;;;;;9.00;7.50;;;;;;;-0.28;98.16;99645.69;5057019;28;20856;-69
2022/01/24 04:30:40;;;;;;;9.40;7.57;;;;;;;-0.24;97.89;99641.06;5057191;28;20748;-69
2022/01/24 04:33:06;;;;;;;11.40;8.03;;;;;;;-0.35;97.75;99647.06;5057031;28;20208;-69
2022/01/24 04:35:33;;;;;;;11.83;7.97;;;;;;;-0.36;98.47;99653.25;5057018;28;20198;-69
2022/01/24 04:37:59;;;;;;;10.30;8.00;;;;;;;-0.37;97.95;99648.97;5057116;28;20470;-69
2022/01/24 04:40:26;;;;;;;10.33;8.13;;;;;;;-0.41;99.09;99651.91;5056861;28;20228;-69
2022/01/24 04:43:02;;;;;;;9.67;7.50;;;;;;;-0.42;98.73;99655.47;5056874;28;20198;-69
2022/01/24 04:45:38;;;;;;;10.50;8.00;;;;;;;-0.38;99.15;99642.09;5056716;28;20437;-69
2022/01/24 04:51:05;;;;;;;8.33;7.30;;;;;;;-0.33;98.43;99634.75;5056922;28;20369;-69
2022/01/24 04:56:21;;;;;;;12.70;8.50;;;;;;;-0.39;98.61;99645.66;5041304;28;20525;-69
2022/01/24 04:58:48;;;;;;;10.27;8.20;;;;;;;-0.33;98.65;99650.41;5056605;28;20615;-69
2022/01/24 05:01:14;;;;;;;10.10;8.27;;;;;;;-0.37;98.24;99654.19;5056642;28;20460;-69
2022/01/24 05:03:41;;;;;;;9.63;8.33;;;;;;;-0.19;98.43;99655.47;5056369;28;20883;-69
2022/01/24 05:06:07;;;;;;;9.90;7.87;;;;;;;-0.13;97.39;99662.84;5056640;28;20435;-69
2022/01/24 05:08:33;;;;;;;11.83;8.50;;;;;;;-0.22;97.83;99665.31;5056624;28;20434;-69
2022/01/24 05:11:05;;;;;;;10.90;8.37;;;;;;;-0.21;97.00;99657.34;5056419;28;20488;-69
2022/01/24 05:24:26;;;;;;;11.33;8.30;;;;;;;-0.47;98.54;99663.66;5056217;28;20401;-67
2022/01/24 05:26:53;;;;;;;12.20;8.33;;;;;;;-0.45;98.57;99664.38;5055724;28;20206;-67
2022/01/24 05:29:19;;;;;;;10.67;8.73;;;;;;;-0.46;98.34;99660.09;5056198;28;20427;-67
2022/01/24 05:31:46;;;;;;;10.63;8.70;;;;;;;-0.43;99.05;99664.25;5055690;28;20919;-67
2022/01/24 05:34:12;;;;;;;9.30;8.00;;;;;;;-0.44;98.13;99660.78;5056093;28;20433;-67
2022/01/24 05:36:38;;;;;;;11.17;8.00;;;;;;;-0.50;98.68;99663.88;5056367;28;20418;-67
2022/01/24 05:39:05;;;;;;;12.37;9.20;;;;;;;-0.43;99.21;99667.72;5055684;28;20222;-67
2022/01/24 05:41:33;;;;;;;11.67;8.47;;;;;;;-0.43;99.24;99675.56;5055940;28;20457;-67
2022/01/24 05:43:59;;;;;;;13.70;9.40;;;;;;;-0.31;98.30;99672.03;5055548;28;20426;-67
2022/01/24 05:46:25;;;;;;;12.77;9.23;;;;;;;-0.33;97.98;99668.72;5055575;28;20441;-67
2022/01/24 05:48:52;;;;;;;12.47;9.10;;;;;;;-0.29;98.18;99672.78;5055717;28;20433;-67
2022/01/24 05:51:20;;;;;;;11.63;9.27;;;;;;;-0.30;97.60;99672.88;5055982;28;20546;-67
2022/01/24 05:53:46;;;;;;;13.73;9.83;;;;;;;-0.23;97.67;99668.84;5055916;28;20438;-67
2022/01/24 05:56:13;;;;;;;11.83;9.73;;;;;;;-0.20;97.57;99669.47;5055529;28;20440;-67
2022/01/24 05:58:39;;;;;;;12.40;9.43;;;;;;;-0.21;97.20;99669.59;5055658;28;20217;-67
2022/01/24 06:01:06;;;;;;;15.23;10.33;;;;;;;-0.26;97.68;99667.28;5056494;28;20457;-66
2022/01/24 06:03:33;;;;;;;12.83;8.67;;;;;;;-0.23;98.03;99676.69;5055653;28;20205;-67
2022/01/24 06:05:59;;;;;;;12.33;9.43;;;;;;;-0.31;98.15;99669.41;5055621;28;20280;-67
2022/01/24 06:08:26;;;;;;;13.73;9.37;;;;;;;-0.34;98.00;99669.66;5055085;28;20211;-67
2022/01/24 06:10:53;;;;;;;13.10;9.67;;;;;;;-0.35;98.59;99662.75;5055069;28;20233;-67
2022/01/24 06:13:20;;;;;;;10.87;9.20;;;;;;;-0.39;98.56;99663.94;5054869;28;20875;-66
2022/01/24 06:15:46;;;;;;;11.80;9.10;;;;;;;-0.39;98.29;99677.00;5054562;28;20833;-66
2022/01/24 06:18:13;;;;;;;12.50;9.43;;;;;;;-0.39;98.33;99679.63;5055069;28;20557;-67
2022/01/24 06:20:39;;;;;;;11.83;9.43;;;;;;;-0.33;98.67;99676.53;5054993;28;20257;-67
2022/01/24 06:23:06;;;;;;;12.60;9.10;;;;;;;-0.37;99.20;99682.09;5055095;28;20428;-66
2022/01/24 06:25:32;;;;;;;11.53;8.87;;;;;;;-0.29;99.13;99677.16;5055504;28;20433;-66
2022/01/24 06:27:59;;;;;;;14.67;8.77;;;;;;;-0.18;98.80;99685.06;5055522;28;20746;-67
2022/01/24 06:30:25;;;;;;;10.50;8.80;;;;;;;-0.20;98.23;99687.78;5056131;28;20225;-67
2022/01/24 06:32:51;;;;;;;12.73;9.30;;;;;;;-0.16;99.33;99688.38;5058605;28;20425;-67
2022/01/24 06:35:18;;;;;;;12.63;10.23;;;;;;;-0.11;99.67;99684.50;5059086;28;20724;-66
2022/01/24 06:37:44;;;;;;;13.67;8.63;;;;;;;-0.11;99.45;99681.88;5058346;28;20829;-67
2022/01/24 06:40:12;;;;;;;12.57;9.30;;;;;;;-0.08;98.96;99675.59;5059427;28;20548;-67
2022/01/24 06:42:39;;;;;;;12.80;9.90;;;;;;;0.00;99.20;99673.25;5058590;28;20429;-67
2022/01/24 06:45:06;;;;;;;13.03;9.70;;;;;;;0.06;99.26;99681.44;5058976;28;20452;-67
2022/01/24 06:47:33;;;;;;;12.47;9.30;;;;;;;0.06;98.79;99684.06;5059102;28;20217;-67
2022/01/24 06:49:59;;;;;;;13.07;10.20;;;;;;;0.12;98.97;99688.00;5058989;28;20228;-66
2022/01/24 06:52:26;;;;;;;13.57;10.23;;;;;;;0.17;99.14;99691.94;5058984;28;20280;-66
2022/01/24 06:54:52;;;;;;;13.93;10.23;;;;;;;0.22;99.54;99693.41;5058891;28;20418;-67
2022/01/24 06:57:19;;;;;;;14.97;9.77;;;;;;;0.28;99.12;99692.94;5058450;28;20425;-67
2022/01/24 06:59:46;;;;;;;12.27;8.73;;;;;;;0.36;98.68;99693.19;5058170;28;20470;-67
2022/01/24 07:02:13;;;;;;;13.40;9.80;;;;;;;0.46;98.97;99696.78;5058523;28;20205;-67
2022/01/24 07:04:41;;;;;;;11.07;9.60;;;;;;;0.45;98.67;99695.13;5058563;28;20198;-67
2022/01/24 07:07:09;;;;;;;10.00;8.63;;;;;;;0.38;99.03;99700.78;5058633;28;20284;-67
2022/01/24 07:09:36;;;;;;;12.87;9.13;;;;;;;0.43;99.44;99707.47;5058494;28;20460;-67
2022/01/24 07:12:03;;;;;;;10.83;8.97;;;;;;;0.45;98.99;99708.19;5058282;28;20193;-67
2022/01/24 07:14:30;;;;;;;13.73;9.87;;;;;;;0.46;98.92;99708.09;5059162;28;20201;-67
2022/01/24 07:17:11;;;;;;;14.57;9.93;;;;;;;0.59;98.34;99716.69;5058196;28;20212;-67
2022/01/24 07:19:37;;;;;;;11.20;9.57;;;;;;;0.61;98.51;99714.78;5057872;28;20620;-66
2022/01/24 07:22:06;;;;;;;11.37;8.77;;;;;;;0.69;98.18;99720.25;5058116;28;20201;-67
2022/01/24 07:24:33;;;;;;;13.70;10.03;;;;;;;0.70;97.75;99721.91;5057573;28;20485;-67
2022/01/24 07:27:00;;;;;;;11.93;9.33;;;;;;;0.70;97.59;99716.69;5057776;28;20201;-66
2022/01/24 07:29:26;;;;;;;11.33;8.83;;;;;;;0.74;97.46;99720.75;5057607;28;20509;-67
2022/01/24 07:31:53;;;;;;;13.30;9.10;;;;;;;0.81;98.02;99726.34;5057902;28;20225;-67
2022/01/24 07:34:19;;;;;;;12.63;9.80;;;;;;;0.80;96.77;99724.69;5057978;28;20204;-67
2022/01/24 07:36:46;;;;;;;13.33;8.97;;;;;;;0.83;97.09;99727.88;5057434;28;20193;-67
2022/01/24 07:39:13;;;;;;;12.80;9.67;;;;;;;0.86;97.53;99726.81;5057946;28;20225;-67
2022/01/24 07:41:44;;;;;;;12.27;9.20;;;;;;;0.97;97.52;99722.41;5056186;28;20229;-67
2022/01/24 07:44:11;;;;;;;11.20;9.30;;;;;;;0.93;97.63;99728.84;5057473;28;20285;-67
2022/01/24 07:46:37;;;;;;;10.37;8.90;;;;;;;0.98;96.97;99731.94;5057399;28;20661;-67
2022/01/24 07:49:06;;;;;;;13.57;9.03;;;;;;;1.02;96.51;99733.38;5057692;28;20269;-67
2022/01/24 07:51:32;;;;;;;12.50;9.17;;;;;;;1.04;95.58;99739.31;5057772;28;20303;-67
2022/01/24 07:53:59;;;;;;;11.63;8.70;;;;;;;1.15;94.87;99744.56;5057847;28;20209;-67
2022/01/24 07:56:25;;;;;;;10.37;8.20;;;;;;;1.14;95.95;99750.78;5057820;28;20214;-67
2022/01/24 07:58:52;;;;;;;13.20;9.37;;;;;;;1.18;95.97;99759.22;5057435;28;20225;-67
2022/01/24 08:01:20;;;;;;;12.53;8.70;;;;;;;1.11;95.07;99753.63;5057702;28;20225;-67
2022/01/24 08:03:46;;;;;;;12.47;8.53;;;;;;;1.21;94.61;99754.56;5057622;28;20513;-67
2022/01/24 08:06:14;;;;;;;12.47;9.57;;;;;;;1.27;94.33;99761.13;5057627;28;20201;-67
2022/01/24 08:08:40;;;;;;;13.23;9.30;;;;;;;1.29;94.23;99759.19;5058037;28;20204;-67
2022/01/24 08:11:06;;;;;;;11.60;8.83;;;;;;;1.37;94.84;99751.59;5057203;28;20643;-67
2022/01/24 08:13:33;;;;;;;11.77;9.13;;;;;;;1.40;94.77;99756.59;5057482;28;20271;-67
2022/01/24 08:15:59;;;;;;;13.87;8.83;;;;;;;1.44;94.03;99750.16;5057466;28;20209;-67
2022/01/24 08:18:26;;;;;;;10.73;8.80;;;;;;;1.55;94.64;99755.38;5057149;28;20197;-67
2022/01/24 08:20:52;;;;;;;11.07;8.87;;;;;;;1.56;94.22;99751.78;5056948;28;20225;-67
2022/01/24 08:23:20;;;;;;;12.63;8.93;;;;;;;1.63;94.00;99751.19;5057193;28;20198;-67
2022/01/24 08:25:46;;;;;;;15.33;8.80;;;;;;;1.64;93.35;99752.03;5057214;28;20197;-66
2022/01/24 08:28:13;;;;;;;13.30;9.77;;;;;;;1.78;93.19;99762.25;5057215;28;20202;-66
2022/01/24 08:30:39;;;;;;;12.17;9.07;;;;;;;1.77;94.32;99740.47;5056783;28;20600;-66
2022/01/24 08:33:06;;;;;;;11.70;9.37;;;;;;;1.86;93.94;99744.13;5057170;28;20208;-66
2022/01/24 08:35:33;;;;;;;11.37;9.03;;;;;;;1.88;93.68;99748.28;5057076;28;20205;-66
2022/01/24 08:37:59;;;;;;;11.97;9.63;;;;;;;1.93;93.30;99743.50;5057122;28;20189;-66
2022/01/24 08:40:28;;;;;;;10.97;8.83;;;;;;;1.97;92.92;99733.56;5056507;28;20528;-66
2022/01/24 08:43:00;;;;;;;11.70;9.73;;;;;;;2.00;92.83;99738.59;5056619;28;20243;-66
2022/01/24 08:45:48;;;;;;;11.10;8.87;;;;;;;1.97;92.83;99744.91;5056800;28;20196;-66
2022/01/24 08:48:16;;;;;;;17.77;9.80;;;;;;;2.09;92.66;99753.56;5057135;28;20460;-66
2022/01/24 08:50:44;;;;;;;13.37;10.53;;;;;;;2.19;93.12;99746.63;5050670;28;20222;-66
2022/01/24 08:53:11;;;;;;;14.60;10.87;;;;;;;2.24;91.19;99747.06;5045283;28;20186;-67
2022/01/24 08:55:38;;;;;;;11.87;10.17;;;;;;;2.43;91.20;99747.25;5048245;28;20193;-66
2022/01/24 08:58:06;;;;;;;12.50;9.97;;;;;;;2.48;90.36;99745.06;5056383;28;20197;-65
2022/01/24 09:00:33;;;;;;;11.70;9.80;;;;;;;2.38;89.22;99752.88;5056558;28;20229;-66
2022/01/24 09:03:00;;;;;;;12.87;10.20;;;;;;;2.43;89.99;99740.19;5056732;28;20267;-66
2022/01/24 09:05:27;;;;;;;14.53;10.87;;;;;;;2.51;89.86;99744.78;5056153;28;20569;-66
2022/01/24 09:07:54;;;;;;;11.23;10.07;;;;;;;2.58;90.75;99741.53;5056290;28;20243;-66
2022/01/24 09:10:24;;;;;;;12.90;10.13;;;;;;;2.58;89.37;99741.53;5056196;28;20312;-67
2022/01/24 09:12:51;;;;;;;14.93;10.30;;;;;;;2.70;88.92;99737.88;5056245;28;20208;-66
2022/01/24 09:15:17;;;;;;;14.33;9.67;;;;;;;2.92;88.24;99726.41;5056131;28;20208;-66
2022/01/24 09:17:44;;;;;;;13.83;10.50;;;;;;;2.93;89.05;99741.22;5056238;28;20209;-66
2022/01/24 09:20:11;;;;;;;13.13;10.67;;;;;;;2.91;87.67;99737.88;5056246;28;20585;-66
2022/01/24 09:22:38;;;;;;;13.40;10.10;;;;;;;2.84;86.47;99732.31;5056497;28;20491;-66
2022/01/24 09:25:06;;;;;;;13.57;10.30;;;;;;;2.81;87.36;99747.50;5055764;28;20205;-66
2022/01/24 09:27:32;;;;;;;14.00;10.57;;;;;;;2.81;86.59;99760.63;5056335;28;20190;-67
2022/01/24 09:29:59;;;;;;;16.10;11.40;;;;;;;2.85;86.75;99751.53;5055880;28;20652;-66
2022/01/24 09:32:27;;;;;;;13.30;11.33;;;;;;;3.06;85.49;99742.66;5055796;28;20504;-66
2022/01/24 09:34:53;;;;;;;13.90;11.10;;;;;;;3.11;85.22;99744.91;5056153;28;20251;-66
2022/01/24 09:37:20;;;;;;;14.60;11.03;;;;;;;3.12;85.70;99742.13;5056170;28;20189;-66
2022/01/24 09:39:46;;;;;;;17.97;10.93;;;;;;;3.33;84.97;99740.28;5055564;28;20212;-65
2022/01/24 09:42:13;;;;;;;13.50;11.70;;;;;;;3.29;85.02;99740.69;5055963;28;20510;-65
2022/01/24 09:44:40;;;;;;;14.73;11.97;;;;;;;3.14;85.36;99734.97;5055722;28;20209;-65
2022/01/24 09:47:06;;;;;;;13.13;11.73;;;;;;;3.09;86.24;99741.56;5056047;28;20205;-66
2022/01/24 09:49:32;;;;;;;13.67;11.33;;;;;;;3.27;83.25;99742.59;5055957;28;20203;-66
2022/01/24 09:51:59;;;;;;;13.53;11.00;;;;;;;3.19;83.96;99750.31;5055855;28;20229;-66
2022/01/24 09:54:25;;;;;;;12.63;10.67;;;;;;;3.40;83.43;99745.84;5055720;28;20201;-66
2022/01/24 09:56:52;;;;;;;12.20;10.93;;;;;;;3.33;83.18;99750.81;5055766;28;20189;-66
2022/01/24 09:59:18;;;;;;;12.07;10.83;;;;;;;3.28;83.35;99746.91;5055478;28;20221;-66
2022/01/24 10:01:44;;;;;;;11.60;9.97;;;;;;;3.44;82.65;99742.00;5055980;28;20227;-66
2022/01/24 10:04:17;;;;;;;13.80;9.93;;;;;;;3.46;80.92;99743.53;5056038;28;20189;-66
2022/01/24 10:07:05;;;;;;;12.73;9.87;;;;;;;3.52;80.91;99750.06;5059395;28;20189;-66
2022/01/24 10:09:38;;;;;;;11.07;9.87;;;;;;;3.47;80.68;99747.81;5059582;28;20193;-66
2022/01/24 10:12:12;;;;;;;12.80;9.70;;;;;;;3.49;80.96;99739.78;5059928;28;20487;-66
2022/01/24 10:17:32;;;;;;;9.17;8.33;;;;;;;3.84;80.44;99734.91;5059668;28;20323;-65
2022/01/24 10:20:16;;;;;;;9.13;8.10;;;;;;;3.79;79.97;99739.75;5059443;28;20225;-66
2022/01/24 10:22:42;;;;;;;10.30;8.33;;;;;;;3.82;80.60;99742.94;5059479;28;20609;-66
2022/01/24 10:25:12;;;;;;;9.67;8.37;;;;;;;4.02;79.21;99739.34;5059588;28;20196;-65
2022/01/24 10:27:42;;;;;;;9.40;8.47;;;;;;;4.15;78.45;99739.91;5059329;28;20203;-66
2022/01/24 10:30:10;;;;;;;9.73;8.73;;;;;;;3.78;79.59;99732.78;5059479;28;20523;-66
2022/01/24 10:32:42;;;;;;;9.00;7.80;;;;;;;3.94;79.52;99725.22;5059082;28;20470;-66
2022/01/24 10:35:43;;;;;;;9.73;8.30;;;;;;;4.03;78.68;99730.47;5059357;28;20224;-66
2022/01/24 10:38:22;;;;;;;9.57;8.13;;;;;;;4.26;78.50;99721.38;5058963;28;20658;-66
2022/01/24 10:40:52;;;;;;;9.00;8.10;;;;;;;4.11;78.78;99712.19;5059414;28;20260;-66
2022/01/24 10:43:27;;;;;;;9.33;7.97;;;;;;;4.32;79.12;99717.31;5059580;28;20193;-66
2022/01/24 10:45:56;;;;;;;9.50;8.50;;;;;;;4.41;78.37;99722.59;5059232;28;20204;-66
2022/01/24 10:48:29;;;;;;;8.10;7.30;;;;;;;4.41;77.36;99724.38;5058955;28;20197;-66
2022/01/24 10:51:12;;;;;;;9.10;7.90;;;;;;;4.25;77.65;99708.34;5058391;28;20224;-66
2022/01/24 10:53:56;;;;;;;10.20;7.73;;;;;;;4.14;78.33;99701.41;5058617;28;20197;-66
2022/01/24 10:56:26;;;;;;;9.13;7.27;;;;;;;4.19;78.66;99700.97;5058385;28;20205;-66
2022/01/24 10:58:52;;;;;;;7.83;6.80;;;;;;;4.36;76.40;99705.53;5038366;28;20624;-66
2022/01/24 11:01:37;;;;;;;7.63;6.83;;;;;;;4.53;76.93;99700.38;5038415;28;20230;-66
2022/01/24 11:04:07;;;;;;;8.13;7.33;;;;;;;4.46;75.37;99701.09;5038764;28;20205;-66
2022/01/24 11:06:39;;;;;;;8.80;6.90;;;;;;;4.55;75.59;99684.44;5038776;28;20197;-66
2022/01/24 11:09:21;;;;;;;8.13;7.33;;;;;;;4.67;74.23;99691.22;5038209;28;20496;-67
2022/01/24 11:11:50;;;;;;;8.20;7.40;;;;;;;4.72;74.65;99689.00;5038208;28;20287;-67
2022/01/24 11:14:19;;;;;;;7.93;7.13;;;;;;;4.57;74.97;99683.34;5038342;28;20206;-66
2022/01/24 11:16:45;;;;;;;10.90;8.00;;;;;;;4.59;74.73;99683.19;5038514;28;20201;-66
2022/01/24 11:19:17;;;;;;;8.23;7.43;;;;;;;4.71;74.67;99684.72;5038590;28;20198;-67
2022/01/24 11:21:45;;;;;;;9.30;6.90;;;;;;;4.66;74.41;99687.75;5037971;28;20245;-67
2022/01/24 11:24:17;;;;;;;7.57;6.87;;;;;;;4.84;73.66;99687.88;5038163;28;20209;-67
2022/01/24 11:26:44;;;;;;;9.37;7.73;;;;;;;4.88;74.56;99684.78;5037912;28;20581;-67
2022/01/24 11:29:12;;;;;;;7.50;6.80;;;;;;;4.92;74.06;99680.88;5037848;28;20277;-67
2022/01/24 11:32:19;;;;;;;8.43;6.97;;;;;;;4.87;74.54;99679.66;5038183;28;20249;-67
2022/01/24 11:34:50;;;;;;;6.87;5.93;;;;;;;4.89;73.21;99683.00;5038183;28;20202;-67
2022/01/24 11:37:42;;;;;;;9.70;6.90;;;;;;;4.86;73.54;99688.53;5038226;28;20493;-67
2022/01/24 11:40:23;;;;;;;8.37;6.53;;;;;;;5.03;73.30;99683.38;5038188;28;20230;-67
2022/01/24 11:42:50;;;;;;;8.70;7.10;;;;;;;5.08;73.49;99682.91;5037708;28;20217;-66
2022/01/24 11:45:32;;;;;;;8.20;6.00;;;;;;;5.25;72.41;99684.78;5037587;28;20687;-67
2022/01/24 11:48:15;;;;;;;7.90;7.00;;;;;;;5.04;73.15;99679.75;5037649;28;20194;-66
2022/01/24 11:50:42;;;;;;;7.20;6.03;;;;;;;4.87;72.32;99677.00;5037568;28;20214;-66
2022/01/24 11:53:24;;;;;;;8.10;6.53;;;;;;;4.97;73.26;99675.22;5043564;28;20248;-66
2022/01/24 11:55:54;;;;;;;8.63;6.70;;;;;;;5.12;72.53;99669.31;5037464;28;20194;-66
2022/01/24 11:58:32;;;;;;;6.63;5.77;;;;;;;5.37;71.12;99668.63;5037109;28;20244;-66
2022/01/24 12:01:03;;;;;;;7.17;5.73;;;;;;;5.24;73.03;99669.97;5037736;28;20254;-66
2022/01/24 12:03:31;;;;;;;7.67;4.90;;;;;;;5.09;73.65;99660.84;5021486;28;20190;-66
2022/01/24 12:06:09;;;;;;;5.57;4.70;;;;;;;5.19;71.39;99662.47;5037491;28;20190;-66
2022/01/24 12:08:41;;;;;;;5.43;4.37;;;;;;;5.14;72.17;99651.53;5036932;28;20548;-67
2022/01/24 12:11:23;;;;;;;5.50;4.73;;;;;;;5.24;72.73;99656.78;5036985;28;20230;-66
2022/01/24 12:14:01;;;;;;;6.77;5.30;;;;;;;5.41;71.08;99658.59;5037137;28;20194;-66
2022/01/24 12:16:45;;;;;;;6.67;4.63;;;;;;;5.27;70.67;99651.19;5037333;28;20194;-66
2022/01/24 12:19:12;;;;;;;7.63;4.67;;;;;;;5.36;71.36;99658.22;5037419;28;20197;-66
2022/01/24 12:21:43;;;;;;;7.07;4.57;;;;;;;5.27;71.72;99659.09;5036705;28;20222;-66
2022/01/24 12:24:14;;;;;;;6.97;4.50;;;;;;;5.31;70.75;99653.41;5036917;28;20194;-66
2022/01/24 12:26:48;;;;;;;5.03;4.40;;;;;;;5.18;70.34;99642.34;5037101;28;20597;-66
2022/01/24 12:29:25;;;;;;;7.47;3.80;;;;;;;5.14;71.01;99640.16;5036191;28;20211;-66
2022/01/24 12:31:58;;;;;;;5.67;3.90;;;;;;;5.17;70.96;99639.88;5036887;28;20509;-66
2022/01/24 12:34:32;;;;;;;4.47;3.80;;;;;;;5.36;71.28;99637.13;5037015;28;20194;-66
2022/01/24 12:37:07;;;;;;;5.10;3.90;;;;;;;5.45;71.63;99641.50;5037163;28;20228;-66
2022/01/24 12:39:49;;;;;;;4.27;3.77;;;;;;;5.37;71.68;99641.41;5036843;28;20198;-66
2022/01/24 12:42:31;;;;;;;6.97;3.63;;;;;;;5.40;71.08;99631.41;5036848;28;20196;-66
2022/01/24 12:47:42;;;;;;;5.47;3.43;;;;;;;5.64;70.47;99621.09;5036630;28;20232;-66
2022/01/24 12:50:10;;;;;;;5.57;3.67;;;;;;;5.52;70.22;99624.94;5036663;28;20224;-66
2022/01/24 12:52:38;;;;;;;4.63;3.60;;;;;;;5.39;70.36;99615.72;5036545;28;20201;-66
2022/01/24 12:55:06;;;;;;;4.50;3.70;;;;;;;5.42;70.71;99621.53;5036730;28;20191;-66
2022/01/24 12:57:39;;;;;;;5.10;3.70;;;;;;;5.52;70.21;99611.75;5036754;28;20206;-66
2022/01/24 13:00:11;;;;;;;5.00;3.80;;;;;;;5.71;70.13;99618.69;5036434;28;20309;-66